Terminal Aerodrome Forecast
Issued by NWS

Home | Current Version | Previous Version | Text Only | Print | Product List | Glossary On
Versions: 1 2 3 4 5 6 7 8 9 10 11 12 13 14 15 16 17 18 19
000
FTUS43 KMPX 221122
TAFRWF
TAF
KRWF 221122Z 2212/2312 14004KT P6SM BKN120
     FM221600 12007KT P6SM VCSH OVC035
     FM221800 13008KT 4SM -SN BR OVC030
      TEMPO 2219/2221 1SM -SN BKN020
     FM222100 10009KT 3/4SM -SN BR VV007
     FM230200 12006KT 3SM -SN BR OVC007
     FM230900 27007KT 6SM -SHSN OVC010=

USA.gov is the U.S. government's official web portal to all federal, state and local government web resources and services.